Time;durP1;ratioP1;P1;durP2;ratioP2;P2;SDS_P1;SDS_P2;PMS_P1;PMS_P2;Temp;Humidity;BMP_temperature;BMP_pressure;BME280_temperature;BME280_humidity;BME280_pressure;Samples;Min_cycle;Max_cycle;Signal;HPM_P1;HPM_P2
2022/05/15 00:01:41;;;;;;;7.95;3.63;;;;;;;13.33;60.11;101679.78;5046241;28;20127;-73
2022/05/15 00:04:08;;;;;;;8.65;3.00;;;;;;;13.28;59.94;101680.00;5105165;28;20063;-73
2022/05/15 00:06:34;;;;;;;7.82;3.08;;;;;;;13.22;60.51;101682.94;5086770;28;20051;-73
2022/05/15 00:09:01;;;;;;;10.02;3.90;;;;;;;13.23;60.29;101681.16;5104522;27;20120;-73
2022/05/15 00:11:27;;;;;;;12.77;3.63;;;;;;;13.14;61.00;101679.81;5096352;27;20449;-73
2022/05/15 00:13:53;;;;;;;10.85;3.08;;;;;;;13.23;60.69;101686.44;5098207;28;20505;-73
2022/05/15 00:16:21;;;;;;;9.68;3.35;;;;;;;13.09;60.42;101682.66;5114373;27;20491;-73
2022/05/15 00:18:49;;;;;;;8.02;3.33;;;;;;;13.14;60.08;101687.72;5086196;28;20256;-73
2022/05/15 00:21:16;;;;;;;6.40;3.38;;;;;;;13.18;60.10;101680.50;5100964;27;20038;-73
2022/05/15 00:23:43;;;;;;;7.65;3.10;;;;;;;13.15;60.47;101689.41;5101978;27;20052;-72
2022/05/15 00:26:09;;;;;;;8.80;3.38;;;;;;;13.13;61.57;101693.88;5091614;28;24589;-73
2022/05/15 00:28:35;;;;;;;7.38;3.03;;;;;;;13.13;61.75;101688.63;5105756;27;20477;-73
2022/05/15 00:31:04;;;;;;;15.88;3.53;;;;;;;13.15;61.37;101695.50;5105731;27;20175;-73
2022/05/15 00:33:31;;;;;;;8.23;2.97;;;;;;;13.11;61.11;101688.72;5104597;27;20764;-73
2022/05/15 00:35:59;;;;;;;9.55;3.70;;;;;;;13.00;61.20;101690.09;5106834;27;20108;-72
2022/05/15 00:38:25;;;;;;;7.00;3.47;;;;;;;12.92;61.29;101692.22;5110828;27;20480;-73
2022/05/15 00:40:51;;;;;;;11.90;3.83;;;;;;;12.71;61.90;101690.59;5108624;27;20507;-74
2022/05/15 00:43:41;;;;;;;11.02;4.22;;;;;;;12.59;62.20;101695.47;5110257;28;20047;-73
2022/05/15 00:46:10;;;;;;;12.18;4.28;;;;;;;12.57;61.34;101685.94;5106033;27;20081;-73
2022/05/15 00:48:37;;;;;;;8.23;3.50;;;;;;;12.52;61.50;101688.78;5112875;27;20044;-73
2022/05/15 00:51:12;;;;;;;9.38;3.95;;;;;;;12.38;61.61;101690.31;5107342;27;20043;-73
2022/05/15 00:53:40;;;;;;;13.40;4.28;;;;;;;12.36;61.97;101693.00;5109842;27;20093;-73
2022/05/15 00:56:08;;;;;;;10.23;3.65;;;;;;;12.33;62.12;101687.88;5108456;28;20084;-73
2022/05/15 00:58:38;;;;;;;8.82;3.75;;;;;;;12.34;62.43;101689.56;5109204;27;20104;-74
2022/05/15 01:01:06;;;;;;;10.98;3.83;;;;;;;12.21;63.42;101683.16;5110703;27;20044;-74
2022/05/15 01:03:32;;;;;;;10.60;3.72;;;;;;;12.19;63.87;101698.16;5109486;27;20043;-73
2022/05/15 01:06:00;;;;;;;7.85;4.20;;;;;;;12.12;64.36;101694.91;5104326;28;20091;-74
2022/05/15 01:08:30;;;;;;;10.43;4.50;;;;;;;12.07;64.68;101698.69;5109975;27;20100;-73
2022/05/15 01:11:02;;;;;;;15.00;4.88;;;;;;;12.02;64.87;101692.75;5109032;27;20742;-73
2022/05/15 01:13:33;;;;;;;11.48;4.20;;;;;;;12.08;64.25;101697.75;5108038;27;20142;-73
2022/05/15 01:16:01;;;;;;;10.95;4.80;;;;;;;12.00;63.53;101700.72;5102488;27;20051;-73
2022/05/15 01:18:30;;;;;;;13.48;4.55;;;;;;;11.90;64.47;101706.44;5109366;28;20526;-73
2022/05/15 01:20:59;;;;;;;9.07;4.68;;;;;;;11.69;65.08;101706.34;5108333;27;20060;-74
2022/05/15 01:23:29;;;;;;;10.43;4.57;;;;;;;11.66;65.70;101706.47;5111001;27;20048;-73
2022/05/15 01:25:57;;;;;;;10.75;4.07;;;;;;;11.41;65.67;101705.75;5108748;28;20043;-74
2022/05/15 01:28:25;;;;;;;12.75;4.47;;;;;;;10.89;68.51;101709.53;5108772;27;20058;-74
2022/05/15 01:30:55;;;;;;;10.25;4.30;;;;;;;10.65;69.56;101699.94;5108034;27;20078;-74
2022/05/15 01:33:21;;;;;;;8.95;4.18;;;;;;;10.70;68.88;101703.25;5106514;27;20051;-73
2022/05/15 01:35:48;;;;;;;15.38;4.75;;;;;;;10.16;71.16;101706.94;5108959;28;20058;-73
2022/05/15 01:38:18;;;;;;;11.68;4.65;;;;;;;10.02;72.32;101710.91;5109864;27;20051;-73
2022/05/15 01:40:45;;;;;;;12.38;5.00;;;;;;;9.86;73.07;101702.72;5107889;27;20055;-73
2022/05/15 01:43:11;;;;;;;14.85;4.13;;;;;;;10.05;71.58;101705.59;5109244;27;20491;-73
2022/05/15 01:45:38;;;;;;;10.70;4.50;;;;;;;10.02;72.40;101718.75;5108181;27;20460;-73
2022/05/15 01:48:04;;;;;;;14.82;5.03;;;;;;;9.96;72.18;101708.50;5108110;27;20570;-73
2022/05/15 01:50:31;;;;;;;10.35;4.10;;;;;;;10.06;71.94;101709.88;5107722;27;20464;-73
2022/05/15 01:52:57;;;;;;;11.82;4.43;;;;;;;10.19;70.87;101714.72;5108826;27;20105;-73
2022/05/15 01:55:25;;;;;;;9.52;4.32;;;;;;;9.82;72.25;101708.09;5127351;27;20065;-73
2022/05/15 01:57:51;;;;;;;11.90;5.40;;;;;;;9.60;74.59;101711.44;5099988;27;20104;-73
2022/05/15 02:00:21;;;;;;;11.48;4.55;;;;;;;9.81;73.47;101711.63;5109253;27;20505;-73
2022/05/15 02:02:48;;;;;;;11.00;4.82;;;;;;;9.94;73.05;101712.94;5107420;27;20040;-73
2022/05/15 02:05:14;;;;;;;14.43;4.82;;;;;;;10.10;71.90;101707.13;5105215;27;20047;-73
2022/05/15 02:07:41;;;;;;;14.02;5.68;;;;;;;10.41;71.00;101709.56;5106372;27;20156;-73
2022/05/15 02:10:09;;;;;;;15.02;5.32;;;;;;;10.72;69.98;101698.81;5114390;27;20069;-73
2022/05/15 02:12:37;;;;;;;10.48;4.97;;;;;;;10.70;69.77;101704.13;5109927;27;20108;-73
2022/05/15 02:15:05;;;;;;;14.30;5.80;;;;;;;10.74;69.47;101705.72;5111431;27;20608;-73
2022/05/15 02:17:31;;;;;;;10.07;4.97;;;;;;;10.67;69.29;101706.00;5109548;27;20133;-73
2022/05/15 02:19:59;;;;;;;13.60;5.03;;;;;;;10.61;69.65;101709.69;5109530;27;20415;-73
2022/05/15 02:22:25;;;;;;;12.60;5.43;;;;;;;10.66;69.27;101705.16;5106918;28;20066;-73
2022/05/15 02:24:52;;;;;;;11.82;5.03;;;;;;;10.84;68.39;101708.00;5097802;27;20044;-73
2022/05/15 02:27:18;;;;;;;11.90;6.13;;;;;;;10.71;68.76;101702.38;5130069;27;20043;-73
2022/05/15 02:29:46;;;;;;;16.80;6.22;;;;;;;10.81;68.26;101702.88;5129728;27;20103;-73
2022/05/15 02:32:12;;;;;;;14.98;6.13;;;;;;;10.86;68.17;101700.94;5131026;27;20046;-73
2022/05/15 02:34:39;;;;;;;10.93;5.57;;;;;;;10.78;68.73;101706.47;5103127;27;20092;-73
2022/05/15 02:37:05;;;;;;;13.05;5.80;;;;;;;10.84;68.04;101700.13;5110342;27;20160;-73
2022/05/15 02:39:31;;;;;;;11.00;5.30;;;;;;;10.75;68.31;101703.97;5106430;27;20040;-73
2022/05/15 02:42:01;;;;;;;12.48;5.65;;;;;;;10.74;68.57;101700.47;5109087;27;20499;-73
2022/05/15 02:44:28;;;;;;;10.25;5.32;;;;;;;10.69;68.00;101699.78;5107285;28;20047;-73
2022/05/15 02:46:56;;;;;;;12.43;5.32;;;;;;;10.79;67.85;101704.69;5109191;27;20044;-73
2022/05/15 02:52:07;;;;;;;13.98;6.15;;;;;;;10.56;67.32;101697.69;5109971;27;20062;-74
2022/05/15 02:54:33;;;;;;;12.10;5.60;;;;;;;10.46;68.81;101701.50;5109610;27;20044;-74
2022/05/15 02:57:00;;;;;;;12.90;6.13;;;;;;;10.38;69.33;101696.56;5105430;27;20055;-73
2022/05/15 02:59:26;;;;;;;15.48;6.18;;;;;;;10.56;68.90;101703.78;5108426;27;20446;-73
2022/05/15 03:01:52;;;;;;;11.80;5.80;;;;;;;10.64;68.46;101700.88;5106633;28;20040;-73
2022/05/15 03:04:20;;;;;;;11.77;5.90;;;;;;;10.48;68.29;101704.97;5106900;28;20446;-73
2022/05/15 03:06:46;;;;;;;10.63;5.55;;;;;;;10.44;68.31;101698.97;5108823;28;20039;-73
2022/05/15 03:09:13;;;;;;;11.50;5.82;;;;;;;10.50;67.79;101708.38;5108320;27;20071;-73
2022/05/15 03:11:39;;;;;;;18.40;5.88;;;;;;;10.42;67.18;101703.38;5108246;28;20047;-73
2022/05/15 03:14:06;;;;;;;13.85;5.50;;;;;;;10.51;67.55;101713.56;5107686;28;20040;-73
2022/05/15 03:16:33;;;;;;;14.23;5.75;;;;;;;10.54;67.26;101710.81;5108890;27;20050;-73
2022/05/15 03:18:59;;;;;;;14.48;6.90;;;;;;;10.40;67.54;101715.72;5108762;28;20446;-73
2022/05/15 03:21:30;;;;;;;14.48;6.35;;;;;;;10.38;67.79;101714.94;5108933;28;20043;-73
2022/05/15 03:23:58;;;;;;;12.18;5.57;;;;;;;10.29;67.80;101710.00;5107664;28;20814;-73
2022/05/15 03:26:26;;;;;;;13.43;5.60;;;;;;;10.33;68.13;101711.59;5108547;27;20047;-73
2022/05/15 03:28:53;;;;;;;13.32;5.25;;;;;;;10.45;67.75;101713.78;5108634;28;20101;-73
2022/05/15 03:31:19;;;;;;;13.82;5.72;;;;;;;10.53;67.54;101718.78;5100750;28;20059;-73
2022/05/15 03:33:47;;;;;;;14.27;6.10;;;;;;;10.53;68.00;101711.72;5108887;27;20043;-73
2022/05/15 03:36:13;;;;;;;12.20;5.30;;;;;;;10.58;67.28;101712.44;5106741;27;20127;-74
2022/05/15 03:38:43;;;;;;;10.30;5.57;;;;;;;10.57;67.21;101713.34;5108413;27;20100;-73
2022/05/15 03:41:09;;;;;;;10.65;4.88;;;;;;;10.52;66.98;101715.28;5108825;27;20076;-73
2022/05/15 03:43:36;;;;;;;13.07;5.00;;;;;;;10.58;66.31;101708.94;5108793;27;20039;-73
2022/05/15 03:46:03;;;;;;;13.25;4.90;;;;;;;10.58;66.74;101715.06;5108544;27;20069;-73
2022/05/15 03:48:29;;;;;;;12.75;5.15;;;;;;;10.63;66.38;101725.38;5102735;27;20039;-73
2022/05/15 03:50:56;;;;;;;10.90;4.80;;;;;;;10.50;67.06;101721.47;5124366;27;20097;-73
2022/05/15 03:53:24;;;;;;;12.23;5.20;;;;;;;10.45;67.17;101724.28;5116621;27;20044;-73
2022/05/15 03:55:55;;;;;;;12.25;4.85;;;;;;;10.28;67.56;101731.88;5108665;28;20388;-73
2022/05/15 03:58:21;;;;;;;12.70;4.97;;;;;;;10.00;68.49;101734.56;5108182;28;20126;-74
2022/05/15 04:00:48;;;;;;;12.93;5.60;;;;;;;10.06;68.56;101736.94;5108608;28;20043;-74
2022/05/15 04:03:14;;;;;;;15.48;4.72;;;;;;;10.26;67.71;101725.84;5108813;28;20043;-73
2022/05/15 04:05:40;;;;;;;10.63;4.72;;;;;;;10.37;67.37;101742.03;5097517;28;20076;-73
2022/05/15 04:08:07;;;;;;;15.43;5.07;;;;;;;10.40;67.35;101735.81;5108247;27;20047;-74
2022/05/15 04:10:35;;;;;;;11.10;5.18;;;;;;;10.37;67.51;101749.06;5109606;27;20088;-73
2022/05/15 04:13:02;;;;;;;11.65;5.35;;;;;;;10.32;68.21;101751.81;5112626;28;20043;-73
2022/05/15 04:15:29;;;;;;;11.48;5.45;;;;;;;10.45;68.21;101745.25;5112554;28;20069;-73
2022/05/15 04:17:55;;;;;;;12.63;5.07;;;;;;;10.48;68.48;101752.16;5112174;27;20059;-73
2022/05/15 04:20:24;;;;;;;9.02;5.22;;;;;;;10.50;68.75;101763.44;5111961;27;20063;-73
2022/05/15 04:22:51;;;;;;;9.55;5.47;;;;;;;10.59;68.90;101753.50;5110412;28;20377;-73
2022/05/15 04:25:18;;;;;;;9.13;5.47;;;;;;;10.64;69.51;101754.16;5112804;27;20088;-73
2022/05/15 04:27:45;;;;;;;11.13;6.25;;;;;;;10.74;69.34;101755.56;5112791;28;20396;-73
2022/05/15 04:30:16;;;;;;;12.00;5.70;;;;;;;10.76;69.49;101758.13;5111425;27;20407;-72
2022/05/15 04:32:42;;;;;;;11.02;6.15;;;;;;;10.71;69.32;101776.66;5104528;27;20100;-72
2022/05/15 04:35:10;;;;;;;15.00;5.65;;;;;;;10.72;69.13;101767.00;5111383;27;20052;-72
2022/05/15 04:37:39;;;;;;;11.80;5.13;;;;;;;10.64;69.03;101766.44;5109624;27;20060;-72
2022/05/15 04:40:06;;;;;;;13.13;6.43;;;;;;;10.77;68.93;101772.97;5100633;27;20069;-73
2022/05/15 04:42:33;;;;;;;9.15;5.35;;;;;;;10.80;69.03;101775.47;5108250;27;20055;-73
2022/05/15 04:44:59;;;;;;;10.10;5.65;;;;;;;11.04;68.42;101778.97;5094712;28;20043;-73
2022/05/15 04:47:27;;;;;;;14.65;6.10;;;;;;;11.01;68.67;101779.91;5103978;27;20048;-73
2022/05/15 04:49:53;;;;;;;9.68;5.63;;;;;;;11.20;68.53;101787.97;5104770;27;20467;-73
2022/05/15 04:52:20;;;;;;;10.68;5.80;;;;;;;11.14;68.44;101786.44;5111760;28;20548;-73
2022/05/15 04:54:46;;;;;;;13.05;5.88;;;;;;;11.56;67.55;101790.97;5108308;27;20762;-73
2022/05/15 04:57:12;;;;;;;11.98;5.55;;;;;;;11.56;67.36;101789.22;5097624;28;20487;-73
2022/05/15 04:59:39;;;;;;;13.57;5.85;;;;;;;11.54;67.51;101785.75;5100249;28;20555;-73
2022/05/15 05:02:05;;;;;;;14.18;6.00;;;;;;;11.55;68.09;101787.50;5104350;27;20055;-73
2022/05/15 05:04:33;;;;;;;14.95;6.00;;;;;;;11.82;68.16;101789.97;5109016;27;20434;-73
2022/05/15 05:07:00;;;;;;;11.98;5.45;;;;;;;11.89;68.33;101796.69;5110728;27;20048;-73
2022/05/15 05:09:26;;;;;;;18.50;5.40;;;;;;;12.30;67.35;101798.47;5101805;27;20082;-73
2022/05/15 05:11:55;;;;;;;12.52;4.90;;;;;;;12.88;65.39;101794.19;5111052;27;20649;-73
2022/05/15 05:14:22;;;;;;;11.23;4.88;;;;;;;12.95;65.54;101792.97;5104132;27;20048;-73
2022/05/15 05:16:48;;;;;;;12.52;5.13;;;;;;;13.25;64.74;101796.03;5121219;27;20047;-73
2022/05/15 05:19:14;;;;;;;10.57;4.60;;;;;;;13.14;65.83;101788.63;5127495;27;20556;-73
2022/05/15 05:21:42;;;;;;;9.20;4.43;;;;;;;13.71;64.72;101793.88;5122518;27;20093;-74
2022/05/15 05:24:09;;;;;;;13.05;5.47;;;;;;;13.91;64.42;101799.91;5112063;27;20096;-74
2022/05/15 05:26:36;;;;;;;12.55;4.50;;;;;;;14.17;64.04;101797.75;5111560;27;20414;-74
2022/05/15 05:29:02;;;;;;;8.98;4.28;;;;;;;15.01;61.13;101792.50;5110651;27;20063;-74
2022/05/15 05:31:29;;;;;;;9.77;4.40;;;;;;;15.10;60.80;101792.03;5095145;27;20086;-73
2022/05/15 05:33:55;;;;;;;9.45;4.15;;;;;;;15.51;60.27;101797.72;5132275;27;20123;-73
2022/05/15 05:36:22;;;;;;;12.73;4.20;;;;;;;15.54;59.84;101803.69;5108039;27;20047;-74
2022/05/15 05:38:49;;;;;;;11.63;3.63;;;;;;;15.78;59.61;101803.28;5111538;27;20679;-75
2022/05/15 05:41:16;;;;;;;6.95;2.70;;;;;;;16.27;56.46;101802.13;5110862;27;20392;-72
2022/05/15 05:43:42;;;;;;;11.80;3.50;;;;;;;16.88;55.43;101791.41;5111721;27;20051;-73
2022/05/15 05:46:08;;;;;;;13.35;3.22;;;;;;;17.37;53.48;101794.50;5111335;27;20052;-73
2022/05/15 05:48:35;;;;;;;9.70;3.45;;;;;;;16.95;54.39;101791.88;5110254;27;20047;-73
2022/05/15 05:51:01;;;;;;;8.73;3.22;;;;;;;17.57;53.19;101795.06;5110575;27;20432;-73
2022/05/15 05:53:28;;;;;;;7.25;2.88;;;;;;;18.21;50.95;101797.88;5111379;27;20043;-73
2022/05/15 05:55:55;;;;;;;9.88;3.38;;;;;;;18.29;49.70;101800.84;5111471;27;20039;-73
2022/05/15 05:58:22;;;;;;;7.43;2.67;;;;;;;17.51;50.95;101801.59;5108690;27;20077;-73
2022/05/15 06:00:48;;;;;;;11.93;3.25;;;;;;;17.60;52.51;101801.03;5108760;27;20112;-73
2022/05/15 06:05:59;;;;;;;8.32;2.88;;;;;;;18.93;48.22;101789.34;5110466;27;20101;-73
2022/05/15 06:08:28;;;;;;;12.40;3.28;;;;;;;19.16;48.97;101795.72;5105600;27;20056;-73
2022/05/15 06:10:55;;;;;;;8.40;3.25;;;;;;;18.66;48.93;101793.09;5109616;27;20054;-73
2022/05/15 06:13:22;;;;;;;8.68;3.30;;;;;;;19.23;47.75;101801.44;5108727;27;20510;-73
2022/05/15 06:15:48;;;;;;;9.25;2.95;;;;;;;19.31;46.56;101797.28;5093068;28;20105;-73
2022/05/15 06:18:15;;;;;;;8.52;3.10;;;;;;;19.04;49.72;101788.59;5095535;27;20495;-74
2022/05/15 06:20:41;;;;;;;10.45;3.38;;;;;;;18.79;50.31;101788.63;5106999;28;20453;-74
2022/05/15 06:23:07;;;;;;;7.05;3.30;;;;;;;19.22;49.95;101792.59;5110190;27;20059;-74
2022/05/15 06:25:34;;;;;;;8.60;3.17;;;;;;;20.00;47.75;101790.47;5090807;28;20097;-74
2022/05/15 06:28:02;;;;;;;9.93;3.88;;;;;;;19.72;48.65;101798.78;5102513;28;20051;-74
2022/05/15 06:30:28;;;;;;;9.38;3.20;;;;;;;19.78;48.17;101796.53;5094797;28;20048;-74
2022/05/15 06:32:55;;;;;;;8.38;2.78;;;;;;;19.58;47.29;101791.81;5092819;28;20109;-73
2022/05/15 06:35:22;;;;;;;8.82;2.95;;;;;;;19.11;48.97;101789.00;5107207;27;20068;-73
2022/05/15 06:37:49;;;;;;;7.20;2.70;;;;;;;18.47;50.62;101799.63;5102424;27;20049;-73
2022/05/15 06:40:16;;;;;;;9.25;2.90;;;;;;;18.71;49.01;101786.50;5106699;27;20069;-74
2022/05/15 06:42:42;;;;;;;10.32;3.13;;;;;;;19.23;51.70;101791.66;5107319;27;20047;-74
2022/05/15 06:45:12;;;;;;;8.75;3.00;;;;;;;20.05;47.55;101788.31;5101279;27;20044;-74
2022/05/15 06:47:38;;;;;;;7.38;2.45;;;;;;;20.97;44.13;101788.31;5109820;27;20059;-74
2022/05/15 06:50:07;;;;;;;6.10;2.72;;;;;;;20.97;43.27;101782.97;5094586;27;20109;-75
2022/05/15 06:52:33;;;;;;;8.13;2.78;;;;;;;20.89;45.55;101791.56;5095835;28;20043;-74
2022/05/15 06:55:00;;;;;;;6.95;2.60;;;;;;;20.57;44.02;101797.72;5111141;27;20534;-75
2022/05/15 06:57:28;;;;;;;8.18;2.72;;;;;;;21.05;44.03;101785.91;5109374;27;20113;-74
2022/05/15 06:59:54;;;;;;;6.03;2.63;;;;;;;21.13;42.97;101794.19;5096212;28;20043;-74
2022/05/15 07:02:22;;;;;;;9.15;3.08;;;;;;;20.90;41.62;101805.75;5099283;28;20078;-74
2022/05/15 07:04:49;;;;;;;6.57;2.28;;;;;;;21.62;40.72;101796.41;5110560;27;20104;-74
2022/05/15 07:07:15;;;;;;;6.90;2.60;;;;;;;21.89;41.87;101800.44;5108322;27;20040;-74
2022/05/15 07:09:41;;;;;;;9.88;2.05;;;;;;;22.28;40.51;101797.19;5107925;27;20043;-74
2022/05/15 07:12:09;;;;;;;8.70;2.53;;;;;;;22.59;38.82;101803.44;5109339;27;20124;-74
2022/05/15 07:14:36;;;;;;;7.07;2.20;;;;;;;22.93;37.55;101796.06;5108242;28;20495;-74
2022/05/15 07:17:02;;;;;;;7.78;2.53;;;;;;;22.89;38.63;101795.50;5110914;27;20039;-74
2022/05/15 07:19:30;;;;;;;8.27;2.20;;;;;;;22.36;41.59;101799.22;5107804;28;20077;-74
2022/05/15 07:21:56;;;;;;;7.45;2.08;;;;;;;22.60;39.18;101799.78;5110356;28;20639;-74
2022/05/15 07:24:23;;;;;;;7.03;2.28;;;;;;;23.07;39.21;101795.69;5099534;28;20048;-74
2022/05/15 07:26:49;;;;;;;8.57;2.33;;;;;;;22.71;39.75;101800.59;5100069;28;20035;-74
2022/05/15 07:29:17;;;;;;;8.95;2.50;;;;;;;23.16;41.80;101800.25;5094294;28;20107;-74
2022/05/15 07:31:44;;;;;;;6.50;2.10;;;;;;;23.29;37.93;101803.53;5110129;28;20507;-74
2022/05/15 07:34:11;;;;;;;8.07;2.75;;;;;;;22.86;38.40;101795.75;5108391;28;20043;-74
2022/05/15 07:36:39;;;;;;;8.02;2.70;;;;;;;22.77;38.61;101800.06;5096909;27;20044;-74
2022/05/15 07:39:05;;;;;;;6.85;2.28;;;;;;;21.85;38.88;101803.38;5104872;27;20559;-75
2022/05/15 07:41:32;;;;;;;8.93;2.15;;;;;;;22.78;40.11;101801.78;5104105;27;20047;-75
2022/05/15 07:43:58;;;;;;;8.15;2.30;;;;;;;23.20;38.73;101788.31;5115418;27;20097;-75
2022/05/15 07:46:25;;;;;;;5.80;2.15;;;;;;;23.80;35.07;101783.84;5095897;28;20089;-74
2022/05/15 07:48:54;;;;;;;5.07;1.70;;;;;;;24.03;35.03;101787.94;5093516;28;20046;-75
2022/05/15 07:51:22;;;;;;;6.68;2.25;;;;;;;24.10;35.16;101781.00;5092366;28;20552;-75
2022/05/15 07:53:50;;;;;;;6.13;2.05;;;;;;;23.87;37.57;101784.97;5098290;28;20636;-76
2022/05/15 07:56:16;;;;;;;8.10;2.03;;;;;;;24.05;36.44;101786.81;5111958;28;20073;-75
2022/05/15 07:58:43;;;;;;;5.22;2.00;;;;;;;24.70;34.96;101778.00;5100435;27;20556;-75
2022/05/15 08:01:09;;;;;;;6.93;2.38;;;;;;;24.86;35.50;101776.56;5105912;27;20553;-75
2022/05/15 08:03:42;;;;;;;7.25;2.20;;;;;;;23.85;35.21;101777.06;5097706;27;20084;-75
2022/05/15 08:08:55;;;;;;;10.25;2.15;;;;;;;24.67;34.17;101772.94;5102923;27;20494;-74
2022/05/15 08:11:26;;;;;;;7.05;2.20;;;;;;;24.19;35.68;101788.25;5104337;27;20109;-74
2022/05/15 08:13:52;;;;;;;5.80;2.20;;;;;;;23.97;34.68;101784.00;5115929;27;20081;-73
2022/05/15 08:16:19;;;;;;;8.20;2.55;;;;;;;24.28;34.79;101775.84;5107704;27;20024;-75
2022/05/15 08:24:15;;;;;;;7.38;2.15;;;;;;;25.10;35.38;101771.53;5116380;28;20082;-74
2022/05/15 08:26:44;;;;;;;8.13;2.22;;;;;;;24.80;33.41;101780.63;5109754;27;20058;-75
2022/05/15 08:29:10;;;;;;;11.80;2.20;;;;;;;24.16;34.77;101784.03;5103092;27;20048;-74
2022/05/15 08:31:38;;;;;;;7.55;1.85;;;;;;;24.06;34.53;101782.28;5115153;27;20048;-75
2022/05/15 08:34:05;;;;;;;10.32;2.78;;;;;;;23.51;34.52;101781.09;5107297;27;20052;-74
2022/05/15 08:36:31;;;;;;;7.38;1.88;;;;;;;22.81;35.39;101768.56;5108117;27;20453;-74
2022/05/15 08:38:57;;;;;;;11.93;2.88;;;;;;;22.87;38.06;101768.03;5104553;27;20107;-74
2022/05/15 08:41:45;;;;;;;7.68;2.55;;;;;;;23.12;35.43;101774.75;5098134;27;20048;-74
2022/05/15 08:44:14;;;;;;;9.68;2.30;;;;;;;23.91;35.12;101776.50;5100376;27;20040;-76
2022/05/15 08:46:52;;;;;;;10.30;2.25;;;;;;;23.63;36.08;101771.97;5114307;27;20098;-75
2022/05/15 08:49:23;;;;;;;6.22;2.17;;;;;;;24.93;35.68;101765.13;5112792;27;20043;-75
2022/05/15 08:51:57;;;;;;;11.75;2.50;;;;;;;24.82;36.08;101759.91;5113451;27;20047;-75
2022/05/15 08:54:24;;;;;;;8.57;2.45;;;;;;;26.13;33.69;101769.28;5102143;27;20553;-75
2022/05/15 08:56:52;;;;;;;9.48;2.33;;;;;;;25.80;30.96;101768.16;5097823;28;20112;-75
2022/05/15 08:59:23;;;;;;;6.45;2.22;;;;;;;26.00;32.87;101768.84;5105373;27;20047;-77
2022/05/15 09:01:52;;;;;;;5.07;1.70;;;;;;;26.58;30.81;101758.41;5108538;27;20042;-77
2022/05/15 09:04:19;;;;;;;6.78;2.13;;;;;;;27.23;30.36;101761.47;5112587;27;20497;-77
2022/05/15 09:06:56;;;;;;;5.97;1.88;;;;;;;26.94;29.78;101760.00;5114053;27;20043;-78
2022/05/15 09:09:35;;;;;;;8.80;2.30;;;;;;;26.85;31.96;101762.81;5114050;27;20040;-77
2022/05/15 09:12:13;;;;;;;7.68;2.00;;;;;;;25.97;32.06;101758.41;5111737;27;20039;-69
2022/05/15 09:14:48;;;;;;;6.85;2.33;;;;;;;26.31;32.08;101751.31;5111577;27;20035;-69
2022/05/15 09:17:18;;;;;;;6.28;2.10;;;;;;;24.08;31.46;101764.25;5129366;27;20515;-69
2022/05/15 09:19:45;;;;;;;6.53;1.83;;;;;;;24.43;34.83;101760.97;5131454;27;20050;-69
2022/05/15 09:22:14;;;;;;;6.55;1.80;;;;;;;25.35;36.00;101751.22;5130055;27;20627;-69
2022/05/15 09:24:48;;;;;;;6.80;1.95;;;;;;;25.80;34.30;101751.19;5132173;27;20054;-69
2022/05/15 09:27:18;;;;;;;4.47;1.95;;;;;;;26.51;33.05;101742.06;5132304;27;20051;-76
2022/05/15 09:29:52;;;;;;;7.95;2.17;;;;;;;26.72;32.29;101744.38;5128652;27;20118;-76
2022/05/15 09:32:32;;;;;;;5.57;1.77;;;;;;;26.45;34.41;101749.94;5111747;28;20564;-76
2022/05/15 09:35:00;;;;;;;8.00;2.22;;;;;;;27.01;31.02;101749.44;5110981;27;20051;-76
2022/05/15 09:40:13;;;;;;;10.00;2.10;;;;;;;27.03;29.81;101750.97;5118688;27;20084;-76
2022/05/15 09:45:36;;;;;;;7.30;2.30;;;;;;;27.05;29.26;101746.25;5122232;27;20054;-76
2022/05/15 09:48:06;;;;;;;10.05;2.30;;;;;;;26.91;31.02;101746.00;5111549;27;20430;-76
2022/05/15 09:50:57;;;;;;;6.40;2.17;;;;;;;26.70;30.94;101750.91;5110734;28;20104;-76
2022/05/15 09:53:27;;;;;;;8.18;2.17;;;;;;;25.48;32.49;101746.31;5108416;27;20039;-68
2022/05/15 09:55:58;;;;;;;11.13;2.42;;;;;;;26.24;35.34;101742.19;5110865;27;20043;-68
2022/05/15 09:58:26;;;;;;;7.80;2.08;;;;;;;26.93;30.08;101730.56;5109476;27;20040;-68
2022/05/15 10:01:15;;;;;;;6.05;2.28;;;;;;;26.28;31.39;101740.03;5090941;28;20044;-68
2022/05/15 10:03:41;;;;;;;8.70;2.20;;;;;;;26.46;30.13;101736.31;5089995;28;20071;-68
2022/05/15 10:06:09;;;;;;;5.53;2.00;;;;;;;26.61;31.16;101725.81;5101628;27;20143;-71
2022/05/15 10:08:37;;;;;;;6.38;2.10;;;;;;;26.48;29.54;101736.16;5111863;27;20135;-77
2022/05/15 10:11:06;;;;;;;7.07;2.40;;;;;;;26.42;31.26;101732.25;5109940;27;20048;-77
2022/05/15 10:13:37;;;;;;;5.90;1.90;;;;;;;26.98;28.56;101723.69;5105618;27;20040;-77
2022/05/15 10:16:09;;;;;;;3.08;1.52;;;;;;;27.67;31.37;101736.03;5112730;27;20043;-77
2022/05/15 10:18:45;;;;;;;7.13;2.08;;;;;;;27.60;29.15;101736.88;5106690;27;20052;-77
2022/05/15 10:21:13;;;;;;;5.20;1.80;;;;;;;27.74;30.32;101734.38;5111008;27;20044;-77
2022/05/15 10:23:45;;;;;;;5.90;1.92;;;;;;;27.39;30.34;101730.03;5109259;28;20043;-77
2022/05/15 10:26:19;;;;;;;4.47;1.90;;;;;;;27.01;30.33;101725.22;5120119;27;20047;-77
2022/05/15 10:28:53;;;;;;;6.07;1.90;;;;;;;27.60;30.43;101724.25;5122632;27;20055;-76
2022/05/15 10:31:24;;;;;;;8.02;2.25;;;;;;;27.58;28.64;101718.16;5110479;28;20505;-76
2022/05/15 10:33:53;;;;;;;7.55;2.10;;;;;;;27.83;32.50;101725.25;5110571;28;20039;-76
2022/05/15 10:36:46;;;;;;;6.47;2.08;;;;;;;28.01;28.65;101723.22;5101797;27;20046;-76
2022/05/15 10:39:24;;;;;;;7.57;1.90;;;;;;;27.45;29.93;101725.84;5108396;27;20044;-77
2022/05/15 10:42:00;;;;;;;7.95;2.20;;;;;;;27.18;29.52;101707.25;5089283;28;20153;-77
2022/05/15 10:44:41;;;;;;;6.65;1.83;;;;;;;27.05;28.68;101708.56;5117698;27;20047;-77
2022/05/15 10:47:13;;;;;;;15.75;2.08;;;;;;;27.61;29.80;101708.88;5130987;27;20047;-77
2022/05/15 10:49:54;;;;;;;6.55;2.03;;;;;;;27.97;28.04;101708.41;5118563;27;20043;-77
2022/05/15 10:52:38;;;;;;;8.30;1.73;;;;;;;28.02;28.81;101708.75;5110463;28;20247;-78
2022/05/15 10:58:03;;;;;;;5.80;2.03;;;;;;;28.00;28.52;101705.41;5109368;27;20506;-78
2022/05/15 11:00:42;;;;;;;5.60;1.45;;;;;;;27.96;30.26;101712.13;5109133;28;20658;-77
2022/05/15 11:03:32;;;;;;;6.53;2.05;;;;;;;27.84;30.08;101705.38;5112667;27;20048;-77
2022/05/15 11:06:17;;;;;;;4.95;1.85;;;;;;;28.04;26.12;101711.28;5109978;27;20097;-77
2022/05/15 11:08:49;;;;;;;5.05;1.77;;;;;;;26.90;28.57;101709.34;5108977;27;20055;-76
2022/05/15 11:11:26;;;;;;;6.95;1.80;;;;;;;26.93;31.63;101703.66;5109240;27;20100;-77
2022/05/15 11:13:56;;;;;;;7.85;1.65;;;;;;;27.82;31.37;101701.19;5105472;28;20044;-77
2022/05/15 11:16:33;;;;;;;4.93;2.17;;;;;;;28.14;29.04;101697.66;5125208;27;20777;-77
2022/05/15 11:19:15;;;;;;;4.78;1.90;;;;;;;28.52;29.34;101683.44;5108478;28;20360;-75
2022/05/15 11:21:51;;;;;;;6.67;1.90;;;;;;;28.77;25.66;101685.06;5108889;28;20044;-75
2022/05/15 11:24:25;;;;;;;6.10;1.80;;;;;;;29.14;25.52;101678.13;5089686;28;20048;-77
2022/05/15 11:26:57;;;;;;;5.30;1.90;;;;;;;29.05;28.12;101680.00;5088868;28;20044;-77
2022/05/15 11:29:25;;;;;;;;;;;;;;;29.20;25.95;101674.69;5089101;28;20044;-76
2022/05/15 11:31:56;;;;;;;5.75;1.60;;;;;;;29.43;27.85;101668.34;5089630;28;19920;-75
2022/05/15 11:35:02;;;;;;;5.10;1.70;;;;;;;29.36;26.99;101671.94;5091906;28;20036;-77
2022/05/15 11:37:43;;;;;;;6.32;1.80;;;;;;;28.57;27.52;101667.53;5105630;27;20471;-78
2022/05/15 11:40:12;;;;;;;5.28;1.90;;;;;;;29.21;27.29;101662.88;5106441;27;20050;-69
2022/05/15 11:42:38;;;;;;;4.55;1.85;;;;;;;29.13;24.59;101655.66;5115242;27;20070;-78
2022/05/15 11:45:35;;;;;;;5.45;1.67;;;;;;;28.77;28.75;101663.47;5117396;27;20039;-78
2022/05/15 11:48:20;;;;;;;5.45;1.48;;;;;;;28.93;28.51;101660.69;5109597;28;20093;-77
2022/05/15 11:50:57;;;;;;;7.65;1.90;;;;;;;28.78;27.71;101662.44;5108706;28;20495;-78
2022/05/15 11:53:30;;;;;;;6.18;1.98;;;;;;;29.07;26.23;101653.69;5130220;27;20039;-77